KIZG 251954Z AUTO 18005KT 10SM CLR 31/20 A3005 RMK AO2 SLP174 T03110200
KCWN 
10nm W 
251958Z AUTO 00000KT 10SM OVC021 08/05 A3005 RMK AO2 SHRAE01SHRAB13E52 SLP062 P0001 T00810054 $